Flight Track Log - Related Links

Times and Time Zones

All times are in EDT time to prevent confusion due to time zone crossing. See the DLH594 flight status page for this flight to view local times or setup timezone preferences in your user account.

Time Position Orientation Groundspeed Altitude Reporting Facility
EDT Latitude Longitude Course Direction KTS MPH feet Rate Location/Type
Fri 04:58:12 AM 49.9930 8.5270 180° South 160 184 1,300  Level FlightAware ADS-B
Fri 04:58:42 AM 49.9700 8.5280 178° South 167 192 2,100 1,200 Climbing FlightAware ADS-B
Fri 04:59:07 AM 49.9460 8.5300 177° South 198 228 2,400 720 Climbing FlightAware ADS-B
Fri 04:59:32 AM 49.9250 8.5310 178° South 230 265 2,700 1,500 Climbing FlightAware ADS-B
Fri 05:00:07 AM 49.8810 8.5340 177° South 246 283 3,900 2,300 Climbing FlightAware ADS-B
Fri 05:00:32 AM 49.8510 8.5360 178° South 255 293 5,000 2,291 Climbing FlightAware ADS-B
Fri 05:01:02 AM 49.8150 8.5390 177° South 257 296 6,000 2,509 Climbing FlightAware ADS-B
Fri 05:01:27 AM 49.7840 8.5410 178° South 259 298 7,300 2,945 Climbing FlightAware ADS-B
Fri 05:01:57 AM 49.7490 8.5370 184° South 241 277 8,700 2,500 Climbing FlightAware ADS-B
Fri 05:02:27 AM 49.7160 8.5330 184° South 245 282 9,800 1,714 Climbing FlightAware ADS-B
Fri 05:03:07 AM 49.6650 8.5260 185° South 276 318 10,700 1,125 Climbing FlightAware ADS-B
Fri 05:03:47 AM 49.6110 8.5200 184° South 325 374 11,300 1,350 Climbing FlightAware ADS-B
Fri 05:04:27 AM 49.5480 8.5180 181° South 338 389 12,500 1,906 Climbing FlightAware ADS-B
Fri 05:05:12 AM 49.4770 8.5140 182° South 340 391 14,000 2,000 Climbing FlightAware ADS-B
Fri 05:05:57 AM 49.4040 8.5110 182° South 352 405 15,500 1,906 Climbing FlightAware ADS-B
Fri 05:06:37 AM 49.3430 8.5080 182° South 356 410 16,700 1,760 Climbing FlightAware ADS-B
Fri 05:07:12 AM 49.2880 8.5060 181° South 353 406 17,700 1,694 Climbing FlightAware ADS-B
Fri 05:08:02 AM 49.2010 8.5020 182° South 369 425 19,100 1,733 Climbing FlightAware ADS-B
Fri 05:08:42 AM 49.1310 8.4990 182° South 371 427 20,300 1,600 Climbing FlightAware ADS-B
Fri 05:09:17 AM 49.0710 8.4960 182° South 369 425 21,100 1,624 Climbing FlightAware ADS-B
Fri 05:10:07 AM 48.9800 8.4920 182° South 374 430 22,600 1,733 Climbing FlightAware ADS-B
Fri 05:10:47 AM 48.9180 8.4900 181° South 371 427 23,700 1,271 Climbing FlightAware ADS-B
Fri 05:11:32 AM 48.8330 8.4860 182° South 383 441 24,400 1,059 Climbing FlightAware ADS-B
Fri 05:12:12 AM 48.7610 8.4830 182° South 385 443 25,200 1,200 Climbing FlightAware ADS-B
Fri 05:12:52 AM 48.6910 8.4800 182° South 385 443 26,000 1,129 Climbing FlightAware ADS-B
Fri 05:13:37 AM 48.6080 8.4760 182° South 390 449 26,800 988 Climbing FlightAware ADS-B
Fri 05:14:17 AM 48.5350 8.4730 182° South 385 443 27,400 918 Climbing FlightAware ADS-B
Fri 05:15:02 AM 48.4530 8.4690 182° South 389 448 28,100 918 Climbing FlightAware ADS-B
Fri 05:15:42 AM 48.3790 8.4660 182° South 399 459 28,700 900 Climbing FlightAware ADS-B
Fri 05:16:22 AM 48.3050 8.4630 182° South 402 463 29,300 776 Climbing FlightAware ADS-B
Fri 05:17:07 AM 48.2220 8.4590 182° South 405 466 29,800 706 Climbing FlightAware ADS-B
Fri 05:17:47 AM 48.1520 8.4560 182° South 399 459 30,300 706 Climbing FlightAware ADS-B
Fri 05:18:32 AM 48.0640 8.4520 182° South 404 465 30,800 494 Climbing FlightAware ADS-B
Fri 05:19:12 AM 47.9870 8.4490 181° South 416 479 31,000 513 Climbing FlightAware ADS-B
Fri 05:21:00 AM 47.7632 8.4041 188° South  Level Estimated
Fri 05:22:00 AM 47.6388 8.3793 188° South  Level Estimated
Fri 05:23:00 AM 47.5145 8.3547 188° South  Level Estimated
Fri 05:24:00 AM 47.3901 8.3301 188° South  Level Estimated
Fri 05:25:00 AM 47.2657 8.3057 188° South  Level Estimated
Fri 05:26:00 AM 47.1414 8.2814 188° South  Level Estimated
Fri 05:27:00 AM 47.0170 8.2572 188° South  Level Estimated
Fri 05:28:00 AM 46.8926 8.2331 188° South  Level Estimated
Fri 05:29:00 AM 46.7682 8.2091 188° South  Level Estimated
Fri 05:30:00 AM 46.6438 8.1853 188° South  Level Estimated
Fri 05:30:37 AM 46.6200 8.6030 188° South 444 511 37,000  Level FlightAware ADS-B
Fri 05:31:32 AM 46.5090 8.6170 175° South 445 512 37,000  Level FlightAware ADS-B
Fri 05:32:17 AM 46.4120 8.6280 176° South 448 516 37,000  Level FlightAware ADS-B
Fri 05:32:57 AM 46.3320 8.6380 175° South 450 518 37,000  Level FlightAware ADS-B
Fri 05:33:37 AM 46.2530 8.6470 175° South 450 518 37,000  Level FlightAware ADS-B
Fri 05:34:22 AM 46.1540 8.6590 175° South 450 518 37,000  Level FlightAware ADS-B
Fri 05:35:02 AM 46.0670 8.6650 177° South 446 513 37,000  Level FlightAware ADS-B
Fri 05:35:47 AM 45.9740 8.6670 179° South 447 514 37,000  Level FlightAware ADS-B
Fri 05:36:22 AM 45.9020 8.6680 179° South 448 516 37,000  Level FlightAware ADS-B
Fri 05:39:00 AM 45.5751 8.5995 188° South  Level Estimated
Fri 05:40:00 AM 45.4509 8.5736 188° South  Level Estimated
Fri 05:40:52 AM 45.3540 8.6780 188° South 444 511 37,000  Level FlightAware ADS-B
Fri 05:41:37 AM 45.2580 8.6800 179° South 444 511 37,000  Level FlightAware ADS-B
Fri 05:42:17 AM 45.1730 8.6820 179° South 446 513 37,000  Level FlightAware ADS-B
Fri 05:42:57 AM 45.0890 8.6830 180° South 447 514 37,000  Level FlightAware ADS-B
Fri 05:43:42 AM 44.9960 8.6850 179° South 448 516 37,000  Level FlightAware ADS-B
Fri 05:44:22 AM 44.9190 8.6860 179° South 450 518 37,000  Level FlightAware ADS-B
Fri 05:45:07 AM 44.8190 8.6880 179° South 450 518 37,000  Level FlightAware ADS-B
Fri 05:45:47 AM 44.7360 8.6900 179° South 453 521 37,000  Level FlightAware ADS-B
Fri 05:46:27 AM 44.6520 8.6910 180° South 456 525 37,000  Level FlightAware ADS-B
Fri 05:47:12 AM 44.5560 8.6930 179° South 459 528 37,000  Level FlightAware ADS-B
Fri 05:47:52 AM 44.4720 8.6940 180° South 460 529 37,000  Level FlightAware ADS-B
Fri 05:48:37 AM 44.3820 8.6960 179° South 460 529 37,000  Level FlightAware ADS-B
Fri 05:49:17 AM 44.2980 8.6980 179° South 459 528 37,000  Level FlightAware ADS-B
Fri 05:49:52 AM 44.2190 8.6990 179° South 458 527 37,000  Level FlightAware ADS-B
Fri 05:50:32 AM 44.1390 8.7000 179° South 460 529 37,000  Level FlightAware ADS-B
Fri 05:51:17 AM 44.0380 8.7020 179° South 463 533 37,000  Level FlightAware ADS-B
Fri 05:51:57 AM 43.9570 8.7030 179° South 464 534 37,000  Level FlightAware ADS-B
Fri 05:54:00 AM 43.7028 8.6488 189° South  Level Estimated
Fri 05:55:00 AM 43.5788 8.6225 189° South  Level Estimated
Fri 05:56:00 AM 43.4548 8.5963 189° South  Level Estimated
Fri 05:56:52 AM 43.3680 8.4830 189° South 449 517 37,000  Level FlightAware ADS-B
Fri 05:57:32 AM 43.2810 8.4360 201° Southwest 450 518 37,000  Level FlightAware ADS-B
Fri 05:58:17 AM 43.1940 8.3890 201° Southwest 450 518 37,000  Level FlightAware ADS-B
Fri 05:58:57 AM 43.1140 8.3460 201° Southwest 450 518 37,000  Level FlightAware ADS-B
Fri 05:59:42 AM 43.0290 8.3000 202° Southwest 450 518 37,000  Level FlightAware ADS-B
Fri 06:00:22 AM 42.9540 8.2600 201° Southwest 449 517 37,000  Level FlightAware ADS-B
Fri 06:01:02 AM 42.8750 8.2180 201° Southwest 449 517 37,000  Level FlightAware ADS-B
Fri 06:01:47 AM 42.7930 8.1750 201° Southwest 450 518 37,000  Level FlightAware ADS-B
Fri 06:02:27 AM 42.7180 8.1350 201° Southwest 450 518 37,000  Level FlightAware ADS-B
Fri 06:03:12 AM 42.6290 8.0870 202° Southwest 450 518 37,000  Level FlightAware ADS-B
Fri 06:03:47 AM 42.5620 8.0520 201° Southwest 450 518 37,000  Level FlightAware ADS-B
Fri 06:04:32 AM 42.4770 8.0070 201° Southwest 451 519 37,000  Level FlightAware ADS-B
Fri 06:05:12 AM 42.3970 7.9650 201° Southwest 452 520 37,000  Level FlightAware ADS-B
Fri 06:05:57 AM 42.3130 7.9220 201° Southwest 453 521 37,000  Level FlightAware ADS-B
Fri 06:06:42 AM 42.2210 7.8740 201° Southwest 453 521 37,000  Level FlightAware ADS-B
Fri 06:07:22 AM 42.1430 7.8330 201° Southwest 454 522 37,000  Level FlightAware ADS-B
Fri 06:08:02 AM 42.0650 7.7920 201° Southwest 454 522 37,000  Level FlightAware ADS-B
Fri 06:08:47 AM 41.9780 7.7480 201° Southwest 446 513 37,000  Level FlightAware ADS-B
Fri 06:09:22 AM 41.9000 7.7070 201° Southwest 446 513 37,000  Level FlightAware ADS-B
Fri 06:10:07 AM 41.8200 7.6660 201° Southwest 447 514 37,000  Level FlightAware ADS-B
Fri 06:10:47 AM 41.7470 7.6280 201° Southwest 456 525 37,000  Level FlightAware ADS-B
Fri 06:11:32 AM 41.6510 7.5790 201° Southwest 449 517 37,000  Level FlightAware ADS-B
Fri 06:12:17 AM 41.5620 7.5340 201° Southwest 448 516 37,000  Level FlightAware ADS-B
Fri 06:12:57 AM 41.4830 7.4940 201° Southwest 447 514 37,000  Level FlightAware ADS-B
Fri 06:13:37 AM 41.4040 7.4540 201° Southwest 446 513 37,000  Level FlightAware ADS-B
Fri 06:14:22 AM 41.3140 7.4080 201° Southwest 445 512 37,000  Level FlightAware ADS-B
Fri 06:15:02 AM 41.2380 7.3700 201° Southwest 445 512 37,000  Level FlightAware ADS-B
Fri 06:15:47 AM 41.1500 7.3260 201° Southwest 446 513 37,000  Level FlightAware ADS-B
Fri 06:16:27 AM 41.0690 7.2860 200° South 457 526 37,000  Level FlightAware ADS-B
Fri 06:17:12 AM 40.9740 7.2660 189° South 467 537 37,000  Level FlightAware ADS-B
Fri 06:17:52 AM 40.8880 7.2540 186° South 468 539 37,000  Level FlightAware ADS-B
Fri 06:18:37 AM 40.7930 7.2430 185° South 469 540 37,000  Level FlightAware ADS-B
Fri 06:19:17 AM 40.7040 7.2320 185° South 470 541 37,000  Level FlightAware ADS-B
Fri 06:20:02 AM 40.6070 7.2200 185° South 470 541 37,000  Level FlightAware ADS-B
Fri 06:20:42 AM 40.5200 7.2100 185° South 469 540 37,000  Level FlightAware ADS-B
Fri 06:21:22 AM 40.4340 7.1990 186° South 468 539 37,000  Level FlightAware ADS-B
Fri 06:22:07 AM 40.3350 7.1880 185° South 467 537 37,000  Level FlightAware ADS-B
Fri 06:22:42 AM 40.2610 7.1790 185° South 467 537 37,000  Level FlightAware ADS-B
Fri 06:23:32 AM 40.1530 7.1660 185° South 467 537 37,000  Level FlightAware ADS-B
Fri 06:24:12 AM 40.0670 7.1560 185° South 468 539 37,000  Level FlightAware ADS-B
Fri 06:24:52 AM 39.9810 7.1460 185° South 470 541 37,000  Level FlightAware ADS-B
Fri 06:25:37 AM 39.8830 7.1350 185° South 471 542 37,000  Level FlightAware ADS-B
Fri 06:26:17 AM 39.7960 7.1250 185° South 472 543 37,000  Level FlightAware ADS-B
Fri 06:26:57 AM 39.7070 7.1140 185° South 471 542 37,000  Level FlightAware ADS-B
Fri 06:27:42 AM 39.6090 7.1030 185° South 470 541 37,000  Level FlightAware ADS-B
Fri 06:28:22 AM 39.5220 7.0930 185° South 468 539 37,000  Level FlightAware ADS-B
Fri 06:29:07 AM 39.4250 7.0820 185° South 468 539 37,000  Level FlightAware ADS-B
Fri 06:29:47 AM 39.3390 7.0720 185° South 468 539 37,000  Level FlightAware ADS-B
Fri 06:30:27 AM 39.2530 7.0620 185° South 469 540 37,000  Level FlightAware ADS-B
Fri 06:31:12 AM 39.1550 7.0510 185° South 471 542 37,000  Level FlightAware ADS-B
Fri 06:31:52 AM 39.0680 7.0440 184° South 465 535 37,000  Level FlightAware ADS-B
Fri 06:32:32 AM 38.9810 7.0360 184° South 471 542 37,000  Level FlightAware ADS-B
Fri 06:33:17 AM 38.8830 7.0280 184° South 468 539 37,000  Level FlightAware ADS-B
Fri 06:33:57 AM 38.7950 7.0210 184° South 467 537 37,000  Level FlightAware ADS-B
Fri 06:34:42 AM 38.7000 7.0130 184° South 468 539 37,000  Level FlightAware ADS-B
Fri 06:35:22 AM 38.6130 7.0060 184° South 470 541 37,000  Level FlightAware ADS-B
Fri 06:36:02 AM 38.5240 6.9980 184° South 471 542 37,000  Level FlightAware ADS-B
Fri 06:36:47 AM 38.4260 6.9900 184° South 470 541 37,000  Level FlightAware ADS-B
Fri 06:37:27 AM 38.3410 6.9830 184° South 469 540 37,000  Level FlightAware ADS-B
Fri 06:38:12 AM 38.2430 6.9750 184° South 469 540 37,000  Level FlightAware ADS-B
Fri 06:38:52 AM 38.1630 6.9680 184° South 469 540 37,000  Level FlightAware ADS-B
Fri 06:39:32 AM 38.0710 6.9600 184° South 469 540 37,000  Level FlightAware ADS-B
Fri 06:40:12 AM 37.9860 6.9530 184° South 469 540 37,000  Level FlightAware ADS-B
Fri 06:41:47 AM 37.7870 6.9380 187° South 467 537 37,000  Level FlightAware ADS-B
Fri 06:42:00 AM 37.7618 6.9187 187° South  Level Estimated
Fri 06:42:42 AM 37.6670 6.9270 184° South 466 536 37,000  Level FlightAware ADS-B
Fri 06:43:22 AM 37.5900 6.9220 183° South 466 536 37,000  Level FlightAware ADS-B
Fri 06:45:07 AM 37.3540 6.9020 184° South 465 535 37,000  Level FlightAware ADS-B
Fri 06:45:52 AM 37.2550 6.8940 184° South 466 536 37,000  Level FlightAware ADS-B
Fri 06:46:32 AM 37.1650 6.8860 184° South 466 536 37,000  Level FlightAware ADS-B
Fri 06:47:12 AM 37.0770 6.8790 184° South 468 539 37,000  Level FlightAware ADS-B
Fri 06:47:57 AM 36.9850 6.8730 183° South 468 539 37,000  Level FlightAware ADS-B
Fri 06:48:37 AM 36.9110 6.8680 183° South 468 539 37,000  Level FlightAware ADS-B
Fri 06:49:17 AM 36.8380 6.8630 183° South 468 539 37,000  Level FlightAware ADS-B
Fri 06:49:57 AM 36.7640 6.8580 183° South 468 539 37,000  Level FlightAware ADS-B
Fri 06:50:47 AM 36.6720 6.8520 183° South 468 539 37,000  Level FlightAware ADS-B
Fri 06:51:27 AM 36.5990 6.8480 183° South 468 539 37,000  Level FlightAware ADS-B
Fri 06:52:07 AM 36.5250 6.8430 183° South 468 539 37,000  Level FlightAware ADS-B
Fri 06:52:47 AM 36.4520 6.8380 183° South 468 539 37,000  Level FlightAware ADS-B
Fri 06:53:27 AM 36.3780 6.8330 183° South 468 539 37,000  Level FlightAware ADS-B
Fri 06:54:07 AM 36.3040 6.8280 183° South 468 539 37,000  Level FlightAware ADS-B
Fri 06:54:57 AM 36.2130 6.8220 183° South 468 539 37,000  Level FlightAware ADS-B
Fri 06:55:37 AM 36.1390 6.8180 182° South 468 539 37,000  Level FlightAware ADS-B
Fri 06:56:17 AM 36.0660 6.8130 183° South 468 539 37,000  Level FlightAware ADS-B
Fri 06:56:57 AM 35.9920 6.8080 183° South 468 539 37,000  Level FlightAware ADS-B
Fri 06:59:00 AM 35.7367 6.7692 187° South  Level Estimated
Fri 07:00:00 AM 35.6122 6.7504 187° South  Level Estimated
Fri 07:01:00 AM 35.4877 6.7316 187° South  Level Estimated
Fri 07:02:00 AM 35.3631 6.7129 187° South  Level Estimated
Fri 07:03:00 AM 35.2386 6.6943 187° South  Level Estimated
Fri 07:04:00 AM 35.1140 6.6757 187° South  Level Estimated
Fri 07:05:00 AM 34.9895 6.6571 187° South  Level Estimated
Fri 07:06:00 AM 34.8649 6.6387 187° South  Level Estimated
Fri 07:07:00 AM 34.7404 6.6203 187° South  Level Estimated
Fri 07:08:00 AM 34.6158 6.6019 187° South  Level Estimated
Fri 07:09:00 AM 34.4913 6.5836 187° South  Level Estimated
Fri 07:10:00 AM 34.3667 6.5653 187° South  Level Estimated
Fri 07:11:00 AM 34.2422 6.5471 187° South  Level Estimated
Fri 07:12:00 AM 34.1176 6.5290 187° South  Level Estimated
Fri 07:13:00 AM 33.9930 6.5109 187° South  Level Estimated
Fri 07:14:00 AM 33.8685 6.4928 187° South  Level Estimated
Fri 07:15:00 AM 33.7439 6.4748 187° South  Level Estimated
Fri 07:16:00 AM 33.6193 6.4569 187° South  Level Estimated
Fri 07:17:00 AM 33.4947 6.4390 187° South  Level Estimated
Fri 07:18:00 AM 33.3702 6.4212 187° South  Level Estimated
Fri 07:19:00 AM 33.2456 6.4034 187° South  Level Estimated
Fri 07:20:00 AM 33.1210 6.3856 187° South  Level Estimated
Fri 07:21:00 AM 32.9964 6.3680 187° South  Level Estimated
Fri 07:22:00 AM 32.8718 6.3503 187° South  Level Estimated
Fri 07:23:00 AM 32.7472 6.3327 187° South  Level Estimated
Fri 07:24:00 AM 32.6226 6.3152 187° South  Level Estimated
Fri 07:25:00 AM 32.4980 6.2977 187° South  Level Estimated
Fri 07:26:00 AM 32.3734 6.2803 187° South  Level Estimated
Fri 07:27:00 AM 32.2488 6.2629 187° South  Level Estimated
Fri 07:28:00 AM 32.1242 6.2456 187° South  Level Estimated
Fri 07:29:00 AM 31.9996 6.2283 187° South  Level Estimated
Fri 07:30:00 AM 31.8750 6.2110 187° South  Level Estimated
Fri 07:31:00 AM 31.7504 6.1938 187° South  Level Estimated
Fri 07:32:00 AM 31.6258 6.1766 187° South  Level Estimated
Fri 07:33:00 AM 31.5012 6.1595 187° South  Level Estimated
Fri 07:34:00 AM 31.3766 6.1425 187° South  Level Estimated
Fri 07:35:00 AM 31.2519 6.1255 187° South  Level Estimated
Fri 07:36:00 AM 31.1273 6.1085 187° South  Level Estimated
Fri 07:37:00 AM 31.0027 6.0915 187° South  Level Estimated
Fri 07:38:00 AM 30.8780 6.0747 187° South  Level Estimated
Fri 07:39:00 AM 30.7534 6.0578 187° South  Level Estimated
Fri 07:40:00 AM 30.6288 6.0410 187° South  Level Estimated
Fri 07:41:00 AM 30.5042 6.0243 187° South  Level Estimated
Fri 07:42:00 AM 30.3795 6.0076 187° South  Level Estimated
Fri 07:43:00 AM 30.2549 5.9909 187° South  Level Estimated
Fri 07:44:00 AM 30.1302 5.9743 187° South  Level Estimated
Fri 07:45:00 AM 30.0056 5.9577 187° South  Level Estimated
Fri 07:46:00 AM 29.8810 5.9411 187° South  Level Estimated
Fri 07:47:00 AM 29.7563 5.9246 187° South  Level Estimated
Fri 07:48:00 AM 29.6317 5.9082 187° South  Level Estimated
Fri 07:49:00 AM 29.5070 5.8917 187° South  Level Estimated
Fri 07:50:00 AM 29.3824 5.8754 187° South  Level Estimated
Fri 07:51:00 AM 29.2577 5.8590 187° South  Level Estimated
Fri 07:52:00 AM 29.1331 5.8427 187° South  Level Estimated
Fri 07:53:00 AM 29.0084 5.8265 187° South  Level Estimated
Fri 07:54:00 AM 28.8837 5.8102 187° South  Level Estimated
Fri 07:55:00 AM 28.7591 5.7941 186° South  Level Estimated
Fri 07:56:00 AM 28.6344 5.7779 186° South  Level Estimated
Fri 07:57:00 AM 28.5097 5.7618 186° South  Level Estimated
Fri 07:58:00 AM 28.3851 5.7457 186° South  Level Estimated
Fri 07:59:00 AM 28.2604 5.7297 186° South  Level Estimated
Fri 08:00:00 AM 28.1357 5.7137 186° South  Level Estimated
Fri 08:01:00 AM 28.0111 5.6978 186° South  Level Estimated
Fri 08:02:00 AM 27.8864 5.6818 186° South  Level Estimated
Fri 08:03:00 AM 27.7617 5.6660 186° South  Level Estimated
Fri 08:04:00 AM 27.6370 5.6501 186° South  Level Estimated
Fri 08:05:00 AM 27.5123 5.6343 186° South  Level Estimated
Fri 08:06:00 AM 27.3877 5.6185 186° South  Level Estimated
Fri 08:07:00 AM 27.2630 5.6028 186° South  Level Estimated
Fri 08:08:00 AM 27.1383 5.5871 186° South  Level Estimated
Fri 08:09:00 AM 27.0136 5.5714 186° South  Level Estimated
Fri 08:10:00 AM 26.8889 5.5558 186° South  Level Estimated
Fri 08:11:00 AM 26.7642 5.5402 186° South  Level Estimated
Fri 08:12:00 AM 26.6395 5.5246 186° South  Level Estimated
Fri 08:13:00 AM 26.5148 5.5091 186° South  Level Estimated
Fri 08:14:00 AM 26.3901 5.4936 186° South  Level Estimated
Fri 08:15:00 AM 26.2654 5.4781 186° South  Level Estimated
Fri 08:16:00 AM 26.1407 5.4627 186° South  Level Estimated
Fri 08:17:00 AM 26.0160 5.4473 186° South  Level Estimated
Fri 08:18:00 AM 25.8913 5.4320 186° South  Level Estimated
Fri 08:19:00 AM 25.7666 5.4166 186° South  Level Estimated
Fri 08:20:00 AM 25.6419 5.4013 186° South  Level Estimated
Fri 08:21:00 AM 25.5172 5.3861 186° South  Level Estimated
Fri 08:22:00 AM 25.3925 5.3708 186° South  Level Estimated
Fri 08:23:00 AM 25.2678 5.3556 186° South  Level Estimated
Fri 08:24:00 AM 25.1431 5.3404 186° South  Level Estimated
Fri 08:25:00 AM 25.0184 5.3253 186° South  Level Estimated
Fri 08:26:00 AM 24.8937 5.3102 186° South  Level Estimated
Fri 08:27:00 AM 24.7689 5.2951 186° South  Level Estimated
Fri 08:28:00 AM 24.6442 5.2801 186° South  Level Estimated
Fri 08:29:00 AM 24.5195 5.2650 186° South  Level Estimated
Fri 08:30:00 AM 24.3948 5.2501 186° South  Level Estimated
Fri 08:31:00 AM 24.2701 5.2351 186° South  Level Estimated
Fri 08:32:00 AM 24.1453 5.2202 186° South  Level Estimated
Fri 08:33:00 AM 24.0206 5.2053 186° South  Level Estimated
Fri 08:34:00 AM 23.8959 5.1904 186° South  Level Estimated
Fri 08:35:00 AM 23.7712 5.1755 186° South  Level Estimated
Fri 08:36:00 AM 23.6464 5.1607 186° South  Level Estimated
Fri 08:37:00 AM 23.5217 5.1459 186° South  Level Estimated
Fri 08:38:00 AM 23.3970 5.1312 186° South  Level Estimated
Fri 08:39:00 AM 23.2722 5.1164 186° South  Level Estimated
Fri 08:40:00 AM 23.1475 5.1017 186° South  Level Estimated
Fri 08:41:00 AM 23.0228 5.0870 186° South  Level Estimated
Fri 08:42:00 AM 22.8980 5.0724 186° South  Level Estimated
Fri 08:43:00 AM 22.7733 5.0578 186° South  Level Estimated
Fri 08:44:00 AM 22.6485 5.0432 186° South  Level Estimated
Fri 08:45:00 AM 22.5238 5.0286 186° South  Level Estimated
Fri 08:46:00 AM 22.3990 5.0141 186° South  Level Estimated
Fri 08:47:00 AM 22.2743 4.9995 186° South  Level Estimated
Fri 08:48:00 AM 22.1495 4.9851 186° South  Level Estimated
Fri 08:49:00 AM 22.0248 4.9706 186° South  Level Estimated
Fri 08:50:00 AM 21.9000 4.9561 186° South  Level Estimated
Fri 08:51:00 AM 21.7753 4.9417 186° South  Level Estimated
Fri 08:52:00 AM 21.6506 4.9273 186° South  Level Estimated
Fri 08:53:00 AM 21.5258 4.9130 186° South  Level Estimated
Fri 08:54:00 AM 21.4011 4.8986 186° South  Level Estimated
Fri 08:55:00 AM 21.2763 4.8843 186° South  Level Estimated
Fri 08:56:00 AM 21.1515 4.8700 186° South  Level Estimated
Fri 08:57:00 AM 21.0268 4.8557 186° South  Level Estimated
Fri 08:58:00 AM 20.9020 4.8415 186° South  Level Estimated
Fri 08:59:00 AM 20.7773 4.8273 186° South  Level Estimated
Fri 09:00:00 AM 20.6525 4.8131 186° South  Level Estimated
Fri 09:01:00 AM 20.5277 4.7989 186° South  Level Estimated
Fri 09:02:00 AM 20.4030 4.7847 186° South  Level Estimated
Fri 09:03:00 AM 20.2782 4.7706 186° South  Level Estimated
Fri 09:04:00 AM 20.1534 4.7565 186° South  Level Estimated
Fri 09:05:00 AM 20.0287 4.7424 186° South  Level Estimated
Fri 09:06:00 AM 19.9039 4.7284 186° South  Level Estimated
Fri 09:07:00 AM 19.7791 4.7143 186° South  Level Estimated
Fri 09:08:00 AM 19.6544 4.7003 186° South  Level Estimated
Fri 09:09:00 AM 19.5296 4.6863 186° South  Level Estimated
Fri 09:10:00 AM 19.4048 4.6723 186° South  Level Estimated
Fri 09:11:00 AM 19.2801 4.6584 186° South  Level Estimated
Fri 09:12:00 AM 19.1553 4.6445 186° South  Level Estimated
Fri 09:13:00 AM 19.0305 4.6305 186° South  Level Estimated
Fri 09:14:00 AM 18.9057 4.6167 186° South  Level Estimated
Fri 09:15:00 AM 18.7809 4.6028 186° South  Level Estimated
Fri 09:16:00 AM 18.6562 4.5889 186° South  Level Estimated
Fri 09:17:00 AM 18.5314 4.5751 186° South  Level Estimated
Fri 09:18:00 AM 18.4066 4.5613 186° South  Level Estimated
Fri 09:19:00 AM 18.2818 4.5475 186° South  Level Estimated
Fri 09:20:00 AM 18.1570 4.5337 186° South  Level Estimated
Fri 09:21:00 AM 18.0323 4.5200 186° South  Level Estimated
Fri 09:22:00 AM 17.9075 4.5062 186° South  Level Estimated
Fri 09:23:00 AM 17.7827 4.4925 186° South  Level Estimated
Fri 09:24:00 AM 17.6579 4.4788 186° South  Level Estimated
Fri 09:25:00 AM 17.5331 4.4652 186° South  Level Estimated
Fri 09:26:00 AM 17.4083 4.4515 186° South  Level Estimated
Fri 09:27:00 AM 17.2835 4.4379 186° South  Level Estimated
Fri 09:28:00 AM 17.1587 4.4243 186° South  Level Estimated
Fri 09:29:00 AM 17.0340 4.4107 186° South  Level Estimated
Fri 09:30:00 AM 16.9092 4.3971 186° South  Level Estimated
Fri 09:31:00 AM 16.7844 4.3835 186° South  Level Estimated
Fri 09:32:00 AM 16.6596 4.3700 186° South  Level Estimated
Fri 09:33:00 AM 16.5348 4.3565 186° South  Level Estimated
Fri 09:34:00 AM 16.4100 4.3430 186° South  Level Estimated
Fri 09:35:00 AM 16.2852 4.3295 186° South  Level Estimated
Fri 09:36:00 AM 16.1604 4.3160 186° South  Level Estimated
Fri 09:37:00 AM 16.0356 4.3025 186° South  Level Estimated
Fri 09:38:00 AM 15.9108 4.2891 186° South  Level Estimated
Fri 09:39:00 AM 15.7860 4.2757 186° South  Level Estimated
Fri 09:40:00 AM 15.6612 4.2623 186° South  Level Estimated
Fri 09:41:00 AM 15.5364 4.2489 186° South  Level Estimated
Fri 09:42:00 AM 15.4116 4.2355 186° South  Level Estimated
Fri 09:43:00 AM 15.2868 4.2221 186° South  Level Estimated
Fri 09:44:00 AM 15.1620 4.2088 186° South  Level Estimated
Fri 09:45:00 AM 15.0372 4.1955 186° South  Level Estimated
Fri 09:46:00 AM 14.9124 4.1822 186° South  Level Estimated
Fri 09:47:00 AM 14.7876 4.1689 186° South  Level Estimated
Fri 09:48:00 AM 14.6628 4.1556 186° South  Level Estimated
Fri 09:49:00 AM 14.5379 4.1423 186° South  Level Estimated
Fri 09:50:00 AM 14.4131 4.1291 186° South  Level Estimated
Fri 09:51:00 AM 14.2883 4.1158 186° South  Level Estimated
Fri 09:52:00 AM 14.1635 4.1026 186° South  Level Estimated
Fri 09:53:00 AM 14.0387 4.0894 186° South  Level Estimated
Fri 09:54:00 AM 13.9139 4.0762 186° South  Level Estimated
Fri 09:55:00 AM 13.7891 4.0630 186° South  Level Estimated
Fri 09:56:00 AM 13.6643 4.0499 186° South  Level Estimated
Fri 09:57:00 AM 13.5395 4.0367 186° South  Level Estimated
Fri 09:58:00 AM 13.4147 4.0236 186° South  Level Estimated
Fri 09:59:00 AM 13.2899 4.0105 186° South  Level Estimated
Fri 10:00:00 AM 13.1650 3.9974 186° South  Level Estimated
Fri 10:01:00 AM 13.0402 3.9843 186° South  Level Estimated
Fri 10:02:00 AM 12.9154 3.9712 186° South  Level Estimated
Fri 10:03:00 AM 12.7906 3.9581 186° South  Level Estimated
Fri 10:04:00 AM 12.6657 3.9451 186° South  Level Estimated
Fri 10:05:00 AM 12.5409 3.9320 186° South  Level Estimated
Fri 10:06:00 AM 12.4161 3.9190 186° South  Level Estimated
Fri 10:07:00 AM 12.2913 3.9060 186° South  Level Estimated
Fri 10:08:00 AM 12.1665 3.8930 186° South  Level Estimated
Fri 10:09:00 AM 12.0416 3.8800 186° South  Level Estimated
Fri 10:10:00 AM 11.9168 3.8670 186° South  Level Estimated
Fri 10:11:00 AM 11.7920 3.8540 186° South  Level Estimated
Fri 10:12:00 AM 11.6672 3.8411 186° South  Level Estimated
Fri 10:13:00 AM 11.5424 3.8281 186° South  Level Estimated
Fri 10:14:00 AM 11.4176 3.8152 186° South  Level Estimated
Fri 10:15:00 AM 11.2927 3.8023 186° South  Level Estimated
Fri 10:16:00 AM 11.1679 3.7894 186° South  Level Estimated
Fri 10:17:00 AM 11.0431 3.7764 186° South  Level Estimated
Fri 10:18:00 AM 10.9182 3.7636 186° South  Level Estimated
Fri 10:19:00 AM 10.7934 3.7507 186° South  Level Estimated
Fri 10:20:00 AM 10.6686 3.7378 186° South  Level Estimated
Fri 10:21:00 AM 10.5437 3.7250 186° South  Level Estimated
Fri 10:22:00 AM 10.4189 3.7121 186° South  Level Estimated
Fri 10:23:00 AM 10.2941 3.6993 186° South  Level Estimated
Fri 10:24:00 AM 10.1693 3.6864 186° South  Level Estimated
Fri 10:25:00 AM 10.0444 3.6736 186° South  Level Estimated
Fri 10:26:00 AM 9.9196 3.6608 186° South  Level Estimated
Fri 10:27:00 AM 9.7948 3.6480 186° South  Level Estimated
Fri 10:28:00 AM 9.6699 3.6352 186° South  Level Estimated
Fri 10:29:00 AM 9.5451 3.6224 186° South  Level Estimated
Fri 10:30:00 AM 9.4203 3.6097 186° South  Level Estimated
Fri 10:31:00 AM 9.2955 3.5969 186° South  Level Estimated
Fri 10:32:00 AM 9.1706 3.5842 186° South  Level Estimated
Fri 10:33:00 AM 9.0458 3.5714 186° South  Level Estimated
Fri 10:34:00 AM 8.9210 3.5587 186° South  Level Estimated
Fri 10:35:00 AM 8.7961 3.5460 186° South  Level Estimated
Fri 10:36:00 AM 8.6713 3.5333 186° South  Level Estimated
Fri 10:37:00 AM 8.5464 3.5205 186° South  Level Estimated
Fri 10:38:00 AM 8.4216 3.5078 186° South  Level Estimated
Fri 10:39:00 AM 8.2968 3.4952 186° South  Level Estimated
Fri 10:40:00 AM 8.1719 3.4825 186° South  Level Estimated
Fri 10:41:00 AM 8.0471 3.4698 186° South  Level Estimated
Fri 10:42:00 AM 7.9222 3.4571 186° South  Level Estimated
Fri 10:43:00 AM 7.7974 3.4445 186° South  Level Estimated
Fri 10:44:00 AM 7.6726 3.4318 186° South  Level Estimated
Fri 10:45:00 AM 7.5477 3.4192 186° South  Level Estimated
Fri 10:46:00 AM 7.4229 3.4065 186° South  Level Estimated
Fri 10:47:00 AM 7.2980 3.3939 186° South  Level Estimated
Fri 10:48:00 AM 7.1732 3.3813 186° South  Level Estimated
Fri 10:49:00 AM 7.0484 3.3687 186° South  Level Estimated
Fri 10:50:00 AM 6.9235 3.3561 186° South  Level Estimated
Fri 10:51:00 AM 6.7987 3.3435 186° South  Level Estimated
Fri 10:52:00 AM 6.6739 3.3309 186° South  Level Estimated
Fri 10:53:00 AM 6.5774 3.3212 186° South  Level Estimated
Fri 10:54:00 AM 6.5774 3.3212 256° West  Level Estimated
Fri 10:55:00 AM 6.5774 3.3212 256° West  Level Estimated
Fri 10:56:00 AM 6.5774 3.3212 256° West  Level Estimated
Fri 10:57:00 AM 6.5774 3.3212 256° West  Level Estimated
Fri 10:58:00 AM 6.5774 3.3212 256° West  Level Estimated
Fri 10:59:00 AM 6.5774 3.3212 256° West  Level Estimated
Fri 11:00:00 AM 6.5774 3.3212 256° West  Level Estimated
Fri 11:01:00 AM 6.5774 3.3212 256° West  Level Estimated

Login

Don't have an account? Register now (free) for customized features, flight alerts, and more!